createdAt,value
2018-12-22T00:01:00.282Z,2.23
2018-12-22T00:03:28.093Z,1.40
2018-12-22T00:05:55.589Z,1.90
2018-12-22T00:08:23.089Z,2.00
2018-12-22T00:10:50.585Z,2.33
2018-12-22T00:13:18.089Z,1.93
2018-12-22T00:15:45.586Z,1.73
2018-12-22T00:18:13.097Z,1.77
2018-12-22T00:20:40.595Z,2.53
2018-12-22T00:23:08.092Z,1.60
2018-12-22T00:25:35.589Z,1.70
2018-12-22T00:28:03.085Z,1.60
2018-12-22T00:30:30.593Z,1.87
2018-12-22T00:32:58.094Z,1.47
2018-12-22T00:35:25.591Z,1.83
2018-12-22T00:37:53.093Z,1.53
2018-12-22T00:40:20.585Z,2.20
2018-12-22T00:42:48.081Z,1.27
2018-12-22T00:45:15.581Z,1.40
2018-12-22T00:47:43.077Z,2.50
2018-12-22T00:50:10.569Z,1.87
2018-12-22T00:52:38.070Z,1.47
2018-12-22T00:55:05.563Z,1.70
2018-12-22T00:57:33.062Z,1.40
2018-12-22T01:00:00.562Z,1.60
2018-12-22T01:02:28.175Z,1.53
2018-12-22T01:04:55.675Z,1.30
2018-12-22T01:07:23.177Z,1.30
2018-12-22T01:09:50.911Z,1.40
2018-12-22T01:12:18.418Z,1.57
2018-12-22T01:14:45.962Z,1.80
2018-12-22T01:17:13.525Z,1.40
2018-12-22T01:19:41.022Z,1.37
2018-12-22T01:22:08.517Z,1.53
2018-12-22T01:24:36.169Z,1.53
2018-12-22T01:27:04.041Z,1.50
2018-12-22T01:29:31.547Z,1.73
2018-12-22T01:31:59.057Z,1.70
2018-12-22T01:34:26.554Z,1.20
2018-12-22T01:36:54.049Z,1.80
2018-12-22T01:39:21.545Z,1.10
2018-12-22T01:41:49.036Z,1.33
2018-12-22T01:44:16.539Z,1.10
2018-12-22T01:46:44.038Z,1.30
2018-12-22T01:49:11.536Z,1.30
2018-12-22T01:51:39.029Z,1.17
2018-12-22T01:54:06.534Z,1.20
2018-12-22T01:56:34.031Z,1.20
2018-12-22T01:59:01.935Z,1.73
2018-12-22T02:01:29.442Z,1.27
2018-12-22T02:03:56.950Z,1.43
2018-12-22T02:06:24.451Z,1.10
2018-12-22T02:08:52.309Z,1.57
2018-12-22T02:11:20.333Z,1.10
2018-12-22T02:13:47.829Z,1.30
2018-12-22T02:16:15.329Z,1.17
2018-12-22T02:18:43.150Z,1.70
2018-12-22T02:21:10.651Z,2.00
2018-12-22T02:23:38.148Z,0.97
2018-12-22T02:26:05.649Z,1.40
2018-12-22T02:28:33.147Z,1.37
2018-12-22T02:31:00.645Z,1.10
2018-12-22T02:33:28.146Z,1.30
2018-12-22T02:35:55.731Z,1.20
2018-12-22T02:38:23.237Z,1.20
2018-12-22T02:40:50.737Z,1.10
2018-12-22T02:43:18.234Z,1.07
2018-12-22T02:45:45.733Z,1.33
2018-12-22T02:48:13.230Z,1.37
2018-12-22T02:50:40.846Z,1.60
2018-12-22T02:53:08.348Z,1.50
2018-12-22T02:55:35.843Z,1.60
2018-12-22T02:58:03.343Z,1.53
2018-12-22T03:00:30.918Z,2.07
2018-12-22T03:02:58.417Z,1.53
2018-12-22T03:05:25.916Z,1.20
2018-12-22T03:07:53.413Z,1.87
2018-12-22T03:10:20.913Z,1.20
2018-12-22T03:12:48.417Z,4.23
2018-12-22T03:15:15.951Z,1.00
2018-12-22T03:17:43.449Z,1.20
2018-12-22T03:20:10.948Z,1.07
2018-12-22T03:22:38.445Z,1.30
2018-12-22T03:25:05.943Z,1.17
2018-12-22T03:27:33.443Z,1.37
2018-12-22T03:30:00.942Z,1.00
2018-12-22T03:32:28.458Z,1.40
2018-12-22T03:34:56.064Z,1.70
2018-12-22T03:37:23.568Z,1.50
2018-12-22T03:39:51.067Z,1.10
2018-12-22T03:42:18.571Z,1.50
2018-12-22T03:44:46.068Z,1.07
2018-12-22T03:47:13.566Z,2.00
2018-12-22T03:49:41.065Z,1.53
2018-12-22T03:52:08.567Z,1.20
2018-12-22T03:54:36.062Z,1.00
2018-12-22T03:57:03.564Z,1.67
2018-12-22T03:59:31.065Z,1.03
2018-12-22T04:01:58.563Z,1.37
2018-12-22T04:04:26.061Z,2.50
2018-12-22T04:06:53.558Z,1.17
2018-12-22T04:09:21.053Z,1.00
2018-12-22T04:11:48.545Z,0.80
2018-12-22T04:14:16.050Z,1.00
2018-12-22T04:16:43.556Z,1.17
2018-12-22T04:19:11.059Z,1.03
2018-12-22T04:21:38.910Z,0.80
2018-12-22T04:24:06.407Z,1.13
2018-12-22T04:26:33.909Z,1.40
2018-12-22T04:29:01.410Z,1.37
2018-12-22T04:31:28.910Z,1.07
2018-12-22T04:33:56.411Z,1.60
2018-12-22T04:36:23.913Z,1.13
2018-12-22T04:38:51.418Z,1.10
2018-12-22T04:41:18.914Z,1.40
2018-12-22T04:43:46.409Z,1.10
2018-12-22T04:46:13.905Z,1.00
2018-12-22T04:48:41.406Z,1.00
2018-12-22T04:51:08.906Z,2.07
2018-12-22T04:53:36.402Z,1.10
2018-12-22T04:56:03.907Z,1.20
2018-12-22T04:58:31.404Z,0.90
2018-12-22T05:00:58.909Z,1.30
2018-12-22T05:03:26.405Z,1.10
2018-12-22T05:05:53.902Z,0.80
2018-12-22T05:08:21.406Z,1.27
2018-12-22T05:10:49.383Z,0.80
2018-12-22T05:13:16.877Z,1.30
2018-12-22T05:15:44.377Z,0.70
2018-12-22T05:18:11.873Z,1.20
2018-12-22T05:20:39.373Z,1.00
2018-12-22T05:23:06.870Z,1.00
2018-12-22T05:25:34.445Z,1.13
2018-12-22T05:28:01.945Z,2.13
2018-12-22T05:30:29.447Z,1.00
2018-12-22T05:32:56.950Z,1.00
2018-12-22T05:35:24.451Z,1.00
2018-12-22T05:37:51.950Z,1.20
2018-12-22T05:40:19.444Z,1.13
2018-12-22T05:42:46.937Z,1.33
2018-12-22T05:45:14.438Z,1.00
2018-12-22T05:47:41.942Z,1.20
2018-12-22T05:50:09.447Z,1.00
2018-12-22T05:52:36.941Z,1.20
2018-12-22T05:55:04.893Z,1.27
2018-12-22T05:57:32.390Z,1.40
2018-12-22T06:00:00.678Z,1.10
2018-12-22T06:02:28.781Z,1.27
2018-12-22T06:04:56.695Z,0.90
2018-12-22T06:07:24.569Z,1.30
2018-12-22T06:09:52.066Z,1.10
2018-12-22T06:12:19.564Z,1.40
2018-12-22T06:14:47.061Z,1.30
2018-12-22T06:17:14.557Z,1.07
2018-12-22T06:19:42.058Z,1.00
2018-12-22T06:22:09.558Z,1.53
2018-12-22T06:24:37.064Z,1.00
2018-12-22T06:27:04.561Z,1.70
2018-12-22T06:29:32.054Z,1.10
2018-12-22T06:31:59.553Z,0.90
2018-12-22T06:34:27.053Z,0.87
2018-12-22T06:36:54.549Z,1.30
2018-12-22T06:39:22.053Z,1.10
2018-12-22T06:41:49.558Z,1.20
2018-12-22T06:44:17.057Z,1.10
2018-12-22T06:46:44.557Z,0.97
2018-12-22T06:49:12.050Z,0.90
2018-12-22T06:51:39.596Z,1.27
2018-12-22T06:54:07.088Z,1.30
2018-12-22T06:56:34.590Z,1.10
2018-12-22T06:59:02.098Z,1.03
2018-12-22T07:01:29.594Z,1.00
2018-12-22T07:03:57.093Z,1.37
2018-12-22T07:06:24.594Z,1.07
2018-12-22T07:08:52.093Z,1.30
2018-12-22T07:11:19.585Z,1.03
2018-12-22T07:13:47.085Z,1.00
2018-12-22T07:16:14.582Z,2.17
2018-12-22T07:18:42.083Z,1.23
2018-12-22T07:21:09.577Z,2.23
2018-12-22T07:23:37.079Z,2.03
2018-12-22T07:26:04.576Z,1.30
2018-12-22T07:28:32.387Z,1.97
2018-12-22T07:30:59.945Z,1.50
2018-12-22T07:33:27.930Z,1.73
2018-12-22T07:35:55.425Z,1.27
2018-12-22T07:38:22.929Z,1.17
2018-12-22T07:40:51.883Z,1.40
2018-12-22T07:43:21.073Z,1.10
2018-12-22T07:45:49.494Z,5.73
2018-12-22T07:48:17.062Z,3.43
2018-12-22T07:50:44.569Z,4.40
2018-12-22T07:53:12.065Z,5.87
2018-12-22T07:55:39.847Z,5.70
2018-12-22T07:58:08.959Z,6.33
2018-12-22T08:00:37.095Z,3.27
2018-12-22T08:03:05.165Z,2.33
2018-12-22T08:05:38.662Z,4.93
2018-12-22T08:08:02.685Z,4.20
2018-12-22T08:10:30.192Z,3.13
2018-12-22T08:12:57.686Z,3.87
2018-12-22T08:15:25.187Z,4.63
2018-12-22T08:17:52.977Z,3.87
2018-12-22T08:20:20.605Z,4.07
2018-12-22T08:22:48.232Z,4.67
2018-12-22T08:25:16.464Z,5.67
2018-12-22T08:27:44.358Z,4.73
2018-12-22T08:30:11.915Z,3.27
2018-12-22T08:32:39.816Z,2.77
2018-12-22T08:35:07.631Z,5.70
2018-12-22T08:37:35.587Z,2.43
2018-12-22T08:40:04.349Z,3.10
2018-12-22T08:42:32.380Z,3.63
2018-12-22T08:44:59.882Z,2.00
2018-12-22T08:47:27.382Z,4.93
2018-12-22T08:49:54.881Z,4.20
2018-12-22T08:52:22.470Z,2.23
2018-12-22T08:54:50.658Z,4.13
2018-12-22T08:57:18.427Z,5.10
2018-12-22T08:59:46.483Z,2.40
2018-12-22T09:02:14.173Z,2.20
2018-12-22T09:04:41.690Z,3.27
2018-12-22T09:07:09.185Z,3.50
2018-12-22T09:09:36.690Z,3.43
2018-12-22T09:12:04.213Z,11.43
2018-12-22T09:14:31.715Z,5.83
2018-12-22T09:16:59.213Z,4.17
2018-12-22T09:19:26.719Z,5.10
2018-12-22T09:21:54.245Z,4.90
2018-12-22T09:24:21.746Z,4.23
2018-12-22T09:26:49.238Z,2.60
2018-12-22T09:29:16.733Z,3.10
2018-12-22T09:31:44.242Z,3.20
2018-12-22T09:34:13.532Z,3.93
2018-12-22T09:36:41.262Z,4.93
2018-12-22T09:39:08.758Z,17.00
2018-12-22T09:41:36.260Z,29.63
2018-12-22T09:44:03.824Z,15.23
2018-12-22T09:46:31.382Z,15.57
2018-12-22T09:48:58.882Z,15.83
2018-12-22T09:51:26.382Z,16.43
2018-12-22T09:53:54.182Z,27.03
2018-12-22T09:56:22.043Z,36.07
2018-12-22T09:58:49.548Z,25.47
2018-12-22T10:01:17.050Z,32.43
2018-12-22T10:03:44.558Z,23.13
2018-12-22T10:06:12.053Z,23.40
2018-12-22T10:08:39.557Z,22.37
2018-12-22T10:11:07.062Z,23.90
2018-12-22T10:13:34.566Z,22.77
2018-12-22T10:16:02.070Z,22.90
2018-12-22T10:18:29.578Z,18.20
2018-12-22T10:20:57.079Z,19.60
2018-12-22T10:23:24.577Z,17.10
2018-12-22T10:25:52.073Z,14.77
2018-12-22T10:28:19.573Z,14.70
2018-12-22T10:30:47.069Z,15.03
2018-12-22T10:33:14.625Z,13.23
2018-12-22T10:35:42.131Z,14.97
2018-12-22T10:38:09.637Z,13.17
2018-12-22T10:40:37.137Z,13.33
2018-12-22T10:43:04.642Z,11.83
2018-12-22T10:45:32.145Z,12.10
2018-12-22T10:47:59.647Z,12.60
2018-12-22T10:50:28.097Z,13.37
2018-12-22T10:52:55.594Z,10.63
2018-12-22T10:55:23.094Z,10.30
2018-12-22T10:57:50.701Z,9.77
2018-12-22T11:00:18.416Z,11.43
2018-12-22T11:02:45.922Z,10.43
2018-12-22T11:05:13.421Z,8.87
2018-12-22T11:07:40.921Z,9.97
2018-12-22T11:10:12.077Z,9.03
2018-12-22T11:12:39.573Z,8.03
2018-12-22T11:15:07.723Z,8.27
2018-12-22T11:17:36.145Z,9.10
2018-12-22T11:20:06.506Z,7.47
2018-12-22T11:22:34.079Z,8.70
2018-12-22T11:25:02.970Z,8.67
2018-12-22T11:27:30.468Z,7.93
2018-12-22T11:29:57.964Z,8.10
2018-12-22T11:32:25.492Z,7.30
2018-12-22T11:34:52.994Z,8.17
2018-12-22T11:37:20.920Z,8.73
2018-12-22T11:39:48.419Z,8.17
2018-12-22T11:42:15.916Z,7.63
2018-12-22T11:44:43.413Z,6.53
2018-12-22T11:47:13.206Z,7.53
2018-12-22T11:49:40.782Z,7.33
2018-12-22T11:52:08.277Z,6.90
2018-12-22T11:54:35.778Z,7.90
2018-12-22T11:57:03.278Z,7.23
2018-12-22T11:59:30.770Z,7.77
2018-12-22T12:01:58.270Z,6.83
2018-12-22T12:04:25.865Z,7.13
2018-12-22T12:06:53.758Z,6.80
2018-12-22T12:09:21.252Z,6.17
2018-12-22T12:11:48.753Z,6.70
2018-12-22T12:14:16.246Z,6.20
2018-12-22T12:16:43.742Z,7.17
2018-12-22T12:19:13.799Z,6.47
2018-12-22T12:21:41.297Z,6.27
2018-12-22T12:24:08.798Z,6.33
2018-12-22T12:26:36.552Z,5.50
2018-12-22T12:29:04.049Z,6.17
2018-12-22T12:31:31.545Z,5.77
2018-12-22T12:33:59.047Z,6.30
2018-12-22T12:36:26.544Z,5.30
2018-12-22T12:38:54.042Z,5.83
2018-12-22T12:41:21.545Z,6.17
2018-12-22T12:43:49.049Z,5.63
2018-12-22T12:46:16.546Z,5.80
2018-12-22T12:48:44.043Z,6.07
2018-12-22T12:51:11.536Z,6.40
2018-12-22T12:53:39.035Z,5.87
2018-12-22T12:56:06.537Z,5.53
2018-12-22T12:58:34.035Z,6.30
2018-12-22T13:01:01.535Z,5.37
2018-12-22T13:03:29.037Z,5.53
2018-12-22T13:05:56.533Z,6.70
2018-12-22T13:08:24.026Z,5.67
2018-12-22T13:10:51.531Z,5.10
2018-12-22T13:13:28.601Z,6.27
2018-12-22T13:15:56.095Z,5.07
2018-12-22T13:18:23.591Z,5.90
2018-12-22T13:20:51.084Z,4.80
2018-12-22T13:23:18.588Z,4.60
2018-12-22T13:25:46.520Z,4.60
2018-12-22T13:28:14.057Z,4.50
2018-12-22T13:30:41.553Z,5.33
2018-12-22T13:33:09.259Z,5.57
2018-12-22T13:35:36.973Z,4.53
2018-12-22T13:38:04.470Z,4.73
2018-12-22T13:40:31.973Z,4.67
2018-12-22T13:42:59.473Z,4.40
2018-12-22T13:45:26.969Z,4.50
2018-12-22T13:47:54.521Z,5.70
2018-12-22T13:50:22.183Z,5.30
2018-12-22T13:52:49.931Z,5.20
2018-12-22T13:55:17.431Z,4.80
2018-12-22T13:57:44.932Z,4.40
2018-12-22T14:00:22.795Z,4.30
2018-12-22T14:02:50.289Z,4.30
2018-12-22T14:05:24.803Z,5.00
2018-12-22T14:07:52.303Z,4.47
2018-12-22T14:10:20.962Z,4.43
2018-12-22T14:12:48.457Z,4.20
2018-12-22T14:15:21.136Z,3.87
2018-12-22T14:17:57.465Z,4.00
2018-12-22T14:20:25.458Z,3.50
2018-12-22T14:22:53.409Z,3.50
2018-12-22T14:25:20.985Z,4.17
2018-12-22T14:27:48.489Z,3.50
2018-12-22T14:30:15.990Z,3.63
2018-12-22T14:32:43.490Z,3.80
2018-12-22T14:35:15.510Z,3.60
2018-12-22T14:37:43.099Z,3.30
2018-12-22T14:40:11.753Z,3.40
2018-12-22T14:42:39.261Z,3.43
2018-12-22T14:45:13.010Z,3.67
2018-12-22T14:47:41.080Z,3.30
2018-12-22T14:50:15.345Z,3.60
2018-12-22T14:52:42.845Z,3.30
2018-12-22T14:55:12.122Z,2.83
2018-12-22T14:57:48.981Z,2.90
2018-12-22T15:00:16.857Z,2.77
2018-12-22T15:02:44.353Z,3.00
2018-12-22T15:05:11.938Z,2.90
2018-12-22T15:07:39.568Z,2.60
2018-12-22T15:10:09.689Z,2.60
2018-12-22T15:12:37.180Z,2.40
2018-12-22T15:15:09.546Z,2.50
2018-12-22T15:17:38.498Z,2.30
2018-12-22T15:20:19.397Z,2.10
2018-12-22T15:22:46.893Z,2.37
2018-12-22T15:25:14.418Z,2.30
2018-12-22T15:27:42.010Z,2.83
2018-12-22T15:30:13.040Z,1.70
2018-12-22T15:32:44.563Z,1.77
2018-12-22T15:35:10.057Z,2.07
2018-12-22T15:37:37.554Z,2.43
2018-12-22T15:40:09.840Z,2.10
2018-12-22T15:42:37.338Z,2.10
2018-12-22T15:45:15.261Z,1.77
2018-12-22T15:47:44.209Z,2.67
2018-12-22T15:50:18.725Z,1.70
2018-12-22T15:52:46.221Z,1.53
2018-12-22T15:55:13.714Z,2.03
2018-12-22T15:57:41.210Z,1.77
2018-12-22T16:00:11.970Z,3.60
2018-12-22T16:02:39.472Z,20.67
2018-12-22T16:05:12.435Z,17.87
2018-12-22T16:07:41.715Z,14.40
2018-12-22T16:10:14.173Z,11.57
2018-12-22T16:12:41.928Z,7.43
2018-12-22T16:15:21.690Z,5.73
2018-12-22T16:17:49.781Z,5.53
2018-12-22T16:20:17.856Z,9.43
2018-12-22T16:22:56.894Z,6.27
2018-12-22T16:25:26.235Z,6.27
2018-12-22T16:27:57.807Z,7.83
2018-12-22T16:30:31.181Z,5.43
2018-12-22T16:33:01.721Z,3.03
2018-12-22T16:35:29.802Z,7.13
2018-12-22T16:37:58.840Z,2.80
2018-12-22T16:40:26.959Z,5.67
2018-12-22T16:42:54.697Z,4.30
2018-12-22T16:45:22.244Z,1.73
2018-12-22T16:47:49.778Z,4.37
2018-12-22T16:50:17.452Z,4.13
2018-12-22T16:52:45.161Z,4.10
2018-12-22T16:55:15.737Z,3.60
2018-12-22T16:57:50.309Z,3.23
2018-12-22T17:00:22.780Z,5.47
2018-12-22T17:02:52.565Z,4.23
2018-12-22T17:05:20.857Z,4.27
2018-12-22T17:07:48.417Z,3.80
2018-12-22T17:10:16.530Z,3.33
2018-12-22T17:12:44.446Z,1.50
2018-12-22T17:15:21.603Z,3.10
2018-12-22T17:17:43.858Z,1.67
2018-12-22T17:20:14.435Z,1.30
2018-12-22T17:25:40.589Z,1.47
2018-12-22T17:28:08.509Z,2.57
2018-12-22T17:30:36.039Z,2.60
2018-12-22T17:33:03.618Z,1.53
2018-12-22T17:35:31.114Z,2.53
2018-12-22T17:37:58.685Z,2.27
2018-12-22T17:40:26.189Z,1.27
2018-12-22T17:42:54.073Z,2.23
2018-12-22T17:45:21.566Z,1.73
2018-12-22T17:47:49.065Z,1.83
2018-12-22T17:50:16.561Z,1.20
2018-12-22T17:52:44.165Z,2.57
2018-12-22T17:55:11.666Z,1.50
2018-12-22T17:57:39.178Z,1.80
2018-12-22T18:00:10.920Z,1.77
2018-12-22T18:02:38.417Z,1.50
2018-12-22T18:05:07.093Z,2.30
2018-12-22T18:07:34.592Z,2.37
2018-12-22T18:10:02.089Z,2.17
2018-12-22T18:12:29.589Z,1.67
2018-12-22T18:14:57.089Z,1.97
2018-12-22T18:17:24.581Z,1.20
2018-12-22T18:19:52.082Z,1.63
2018-12-22T18:22:19.578Z,1.57
2018-12-22T18:24:47.073Z,2.00
2018-12-22T18:27:14.574Z,1.03
2018-12-22T18:29:42.073Z,2.33
2018-12-22T18:32:09.567Z,1.20
2018-12-22T18:34:37.062Z,1.63
2018-12-22T18:37:04.562Z,1.80
2018-12-22T18:39:32.065Z,2.03
2018-12-22T18:41:59.565Z,1.50
2018-12-22T18:44:27.060Z,1.03
2018-12-22T18:46:54.567Z,1.37
2018-12-22T18:49:22.066Z,1.43
2018-12-22T18:51:49.562Z,0.87
2018-12-22T18:54:17.062Z,1.10
2018-12-22T18:56:44.560Z,0.70
2018-12-22T18:59:12.315Z,1.53
2018-12-22T19:01:39.809Z,0.70
2018-12-22T19:04:07.311Z,1.20
2018-12-22T19:06:34.809Z,0.70
2018-12-22T19:09:02.486Z,1.43
2018-12-22T19:11:29.983Z,1.20
2018-12-22T19:13:57.674Z,1.73
2018-12-22T19:16:25.169Z,1.00
2018-12-22T19:18:52.665Z,1.00
2018-12-22T19:21:20.181Z,0.70
2018-12-22T19:23:47.738Z,1.40
2018-12-22T19:26:15.297Z,1.13
2018-12-22T19:28:42.797Z,1.10
2018-12-22T19:31:10.305Z,1.00
2018-12-22T19:33:37.810Z,1.00
2018-12-22T19:36:05.770Z,1.00
2018-12-22T19:38:33.690Z,1.07
2018-12-22T19:41:01.216Z,1.10
2018-12-22T19:43:28.717Z,2.13
2018-12-22T19:45:56.382Z,0.80
2018-12-22T19:48:23.877Z,1.30
2018-12-22T19:50:51.377Z,1.00
2018-12-22T19:53:19.145Z,0.90
2018-12-22T19:55:46.641Z,0.90
2018-12-22T19:58:14.578Z,1.37
2018-12-22T20:00:42.077Z,0.80
2018-12-22T20:03:09.582Z,1.47
2018-12-22T20:05:37.078Z,1.00
2018-12-22T20:08:04.575Z,0.90
2018-12-22T20:10:32.076Z,1.50
2018-12-22T20:12:59.569Z,0.70
2018-12-22T20:15:27.068Z,1.23
2018-12-22T20:17:54.569Z,1.97
2018-12-22T20:20:22.065Z,0.90
2018-12-22T20:22:49.561Z,0.90
2018-12-22T20:25:17.057Z,1.43
2018-12-22T20:27:44.557Z,1.27
2018-12-22T20:30:12.098Z,1.30
2018-12-22T20:32:39.624Z,1.17
2018-12-22T20:35:07.126Z,1.33
2018-12-22T20:37:34.621Z,1.13
2018-12-22T20:40:02.114Z,1.13
2018-12-22T20:42:29.609Z,1.40
2018-12-22T20:44:57.100Z,1.00
2018-12-22T20:47:24.594Z,1.60
2018-12-22T20:49:52.093Z,1.43
2018-12-22T20:52:19.589Z,2.13
2018-12-22T20:54:47.089Z,1.20
2018-12-22T20:57:14.593Z,1.53
2018-12-22T20:59:42.673Z,1.37
2018-12-22T21:02:10.168Z,1.67
2018-12-22T21:04:37.666Z,1.13
2018-12-22T21:07:05.164Z,1.00
2018-12-22T21:09:32.664Z,1.23
2018-12-22T21:12:00.157Z,1.57
2018-12-22T21:14:27.657Z,0.90
2018-12-22T21:16:55.159Z,1.00
2018-12-22T21:19:22.656Z,0.90
2018-12-22T21:21:50.150Z,1.53
2018-12-22T21:24:17.650Z,1.07
2018-12-22T21:26:45.149Z,0.80
2018-12-22T21:29:12.770Z,1.20
2018-12-22T21:31:40.265Z,0.80
2018-12-22T21:34:07.774Z,1.13
2018-12-22T21:36:35.272Z,0.83
2018-12-22T21:39:04.478Z,1.00
2018-12-22T21:41:31.974Z,1.00
2018-12-22T21:43:59.469Z,1.40
2018-12-22T21:46:26.965Z,0.90
2018-12-22T21:48:54.467Z,1.23
2018-12-22T21:51:21.966Z,1.07
2018-12-22T21:53:49.463Z,0.90
2018-12-22T21:56:16.957Z,1.00
2018-12-22T21:58:44.454Z,1.07
2018-12-22T22:01:11.954Z,0.60
2018-12-22T22:03:39.459Z,1.07
2018-12-22T22:06:06.953Z,0.60
2018-12-22T22:08:34.453Z,1.40
2018-12-22T22:11:01.973Z,0.80
2018-12-22T22:13:29.566Z,0.97
2018-12-22T22:15:57.100Z,0.60
2018-12-22T22:18:24.598Z,2.07
2018-12-22T22:20:52.101Z,1.73
2018-12-22T22:23:19.595Z,0.60
2018-12-22T22:25:47.093Z,0.97
2018-12-22T22:28:14.593Z,1.67
2018-12-22T22:30:42.091Z,0.90
2018-12-22T22:33:09.591Z,1.07
2018-12-22T22:35:37.102Z,0.97
2018-12-22T22:38:04.603Z,0.47
2018-12-22T22:40:32.106Z,0.70
2018-12-22T22:42:59.610Z,0.97
2018-12-22T22:45:27.114Z,0.60
2018-12-22T22:47:54.652Z,0.70
2018-12-22T22:50:22.149Z,0.47
2018-12-22T22:52:49.650Z,0.97
2018-12-22T22:55:17.147Z,0.50
2018-12-22T22:57:44.663Z,1.43
2018-12-22T23:00:14.269Z,0.57
2018-12-22T23:02:41.802Z,0.90
2018-12-22T23:05:09.303Z,0.70
2018-12-22T23:07:36.809Z,0.40
2018-12-22T23:10:06.064Z,0.30
2018-12-22T23:12:33.566Z,0.80
2018-12-22T23:15:01.065Z,0.47
2018-12-22T23:17:28.566Z,0.60
2018-12-22T23:19:56.065Z,1.40
2018-12-22T23:22:23.567Z,0.47
2018-12-22T23:24:51.065Z,0.67
2018-12-22T23:27:18.561Z,0.60
2018-12-22T23:29:46.061Z,0.83
2018-12-22T23:32:13.558Z,0.40
2018-12-22T23:34:41.057Z,0.47
2018-12-22T23:37:08.557Z,0.60
2018-12-22T23:39:36.062Z,0.60
2018-12-22T23:42:03.557Z,0.30
2018-12-22T23:44:31.062Z,0.73
2018-12-22T23:46:58.560Z,0.40
2018-12-22T23:49:26.061Z,0.50
2018-12-22T23:51:53.556Z,0.40
2018-12-22T23:54:21.054Z,0.37
2018-12-22T23:56:48.549Z,0.30
2018-12-22T23:59:16.045Z,0.33
